Terminal Aerodrome Forecast
Issued by NWS

Home | Current Version | Previous Version | Graphics & Text | Print | Product List | Glossary On
Versions: 1 2 3 4 5 6 7 8 9 10 11 12 13 14 15 16 17 18 19
551
FTUS43 KABR 230530
TAFMBG
TAF
KMBG 230530Z 2306/2406 14013G21KT P6SM SCT250
     FM231400 13008KT P6SM OVC050
     FM231700 07010KT P6SM OVC015
      TEMPO 2323/2402 5SM -RA
     FM240300 36015KT P6SM OVC015=

USA.gov is the U.S. government's official web portal to all federal, state and local government web resources and services.